createdAt,value
2023-01-15T00:00:47.561Z,7.50
2023-01-15T00:03:34.553Z,7.50
2023-01-15T00:06:05.055Z,7.50
2023-01-15T00:08:33.203Z,7.50
2023-01-15T00:11:16.786Z,7.50
2023-01-15T00:13:55.721Z,7.50
2023-01-15T00:19:17.871Z,7.50
2023-01-15T00:21:45.893Z,7.50
2023-01-15T00:24:33.381Z,7.40
2023-01-15T00:27:23.172Z,7.40
2023-01-15T00:30:00.067Z,7.40
2023-01-15T00:32:29.677Z,7.40
2023-01-15T00:35:04.553Z,7.40
2023-01-15T00:37:32.887Z,7.40
2023-01-15T00:40:04.131Z,7.40
2023-01-15T00:42:34.145Z,7.40
2023-01-15T00:45:10.343Z,7.40
2023-01-15T00:47:48.227Z,7.30
2023-01-15T00:50:17.238Z,7.40
2023-01-15T00:52:51.371Z,7.40
2023-01-15T00:55:19.560Z,7.40
2023-01-15T00:57:52.201Z,7.40
2023-01-15T01:00:20.650Z,7.40
2023-01-15T01:02:57.710Z,7.40
2023-01-15T01:05:36.150Z,7.30
2023-01-15T01:08:04.636Z,7.30
2023-01-15T01:10:35.573Z,7.30
2023-01-15T01:13:05.058Z,7.30
2023-01-15T01:15:38.866Z,7.40
2023-01-15T01:18:07.290Z,7.40
2023-01-15T01:20:42.815Z,7.30
2023-01-15T01:23:10.981Z,7.30
2023-01-15T01:25:41.025Z,7.30
2023-01-15T01:28:10.928Z,7.30
2023-01-15T01:30:44.917Z,7.30
2023-01-15T01:33:13.240Z,7.30
2023-01-15T01:35:50.068Z,7.30
2023-01-15T01:38:26.074Z,7.40
2023-01-15T01:40:54.520Z,7.30
2023-01-15T01:43:31.666Z,7.30
2023-01-15T01:45:59.844Z,7.30
2023-01-15T01:48:34.561Z,7.30
2023-01-15T01:51:13.421Z,7.30
2023-01-15T01:53:41.687Z,7.30
2023-01-15T01:56:17.663Z,7.30
2023-01-15T01:58:55.804Z,7.30
2023-01-15T02:01:26.337Z,7.40
2023-01-15T02:03:56.795Z,7.30
2023-01-15T02:06:27.472Z,7.30
2023-01-15T02:09:07.238Z,7.40
2023-01-15T02:11:41.502Z,7.40
2023-01-15T02:14:22.721Z,7.40
2023-01-15T02:17:00.319Z,7.40
2023-01-15T02:19:42.330Z,7.40
2023-01-15T02:22:24.805Z,7.40
2023-01-15T02:25:09.378Z,7.40
2023-01-15T02:27:46.766Z,7.40
2023-01-15T02:30:29.995Z,7.40
2023-01-15T02:33:08.621Z,7.40
2023-01-15T02:35:40.562Z,7.40
2023-01-15T02:38:15.699Z,7.40
2023-01-15T02:40:53.850Z,7.40
2023-01-15T02:43:32.545Z,7.40
2023-01-15T02:46:03.351Z,7.40
2023-01-15T02:48:37.470Z,7.40
2023-01-15T02:51:19.192Z,7.40
2023-01-15T02:53:58.224Z,7.40
2023-01-15T02:56:41.412Z,7.40
2023-01-15T02:59:19.019Z,7.40
2023-01-15T03:02:02.442Z,7.30
2023-01-15T03:04:41.057Z,7.30
2023-01-15T03:07:24.385Z,7.30
2023-01-15T03:09:54.750Z,7.40
2023-01-15T03:12:30.043Z,7.30
2023-01-15T03:15:11.517Z,7.30
2023-01-15T03:17:45.915Z,7.30
2023-01-15T03:20:26.460Z,7.30
2023-01-15T03:23:10.041Z,7.40
2023-01-15T03:25:49.170Z,7.30
2023-01-15T03:28:32.528Z,7.40
2023-01-15T03:31:02.267Z,7.30
2023-01-15T03:33:35.257Z,7.30
2023-01-15T03:36:04.467Z,7.30
2023-01-15T03:38:38.518Z,7.30
2023-01-15T03:41:17.228Z,7.30
2023-01-15T03:44:01.891Z,7.30
2023-01-15T03:47:09.044Z,7.30
2023-01-15T03:49:45.555Z,7.30
2023-01-15T03:52:25.786Z,7.30
2023-01-15T03:55:08.409Z,7.30
2023-01-15T03:57:41.529Z,7.30
2023-01-15T04:00:14.433Z,7.30
2023-01-15T04:02:48.024Z,7.40
2023-01-15T04:05:23.351Z,7.40
2023-01-15T04:07:56.202Z,7.40
2023-01-15T04:10:27.450Z,7.40
2023-01-15T04:12:55.669Z,7.40
2023-01-15T04:15:31.719Z,7.40
2023-01-15T04:18:01.174Z,7.40
2023-01-15T04:20:31.059Z,7.40
2023-01-15T04:22:59.398Z,7.40
2023-01-15T04:25:35.063Z,7.40
2023-01-15T04:28:03.521Z,7.40
2023-01-15T04:30:38.256Z,7.40
2023-01-15T04:33:08.102Z,7.40
2023-01-15T04:35:42.764Z,7.40
2023-01-15T04:38:18.949Z,7.40
2023-01-15T04:41:04.882Z,7.40
2023-01-15T04:43:51.032Z,7.40
2023-01-15T04:46:25.812Z,7.40
2023-01-15T04:49:05.886Z,7.30
2023-01-15T04:51:34.063Z,7.40
2023-01-15T04:54:06.168Z,7.30
2023-01-15T04:56:46.177Z,7.30
2023-01-15T04:59:15.385Z,7.30
2023-01-15T05:02:02.367Z,7.30
2023-01-15T05:04:40.302Z,7.30
2023-01-15T05:07:11.604Z,7.30
2023-01-15T05:09:39.986Z,7.30
2023-01-15T05:12:17.226Z,7.30
2023-01-15T05:14:55.894Z,7.20
2023-01-15T05:17:23.957Z,7.20
2023-01-15T05:19:55.955Z,7.20
2023-01-15T05:22:24.169Z,7.20
2023-01-15T05:25:01.234Z,7.30
2023-01-15T05:27:39.486Z,7.20
2023-01-15T05:30:18.125Z,7.20
2023-01-15T05:32:47.418Z,7.20
2023-01-15T05:35:27.902Z,7.20
2023-01-15T05:38:07.120Z,7.20
2023-01-15T05:40:46.146Z,7.20
2023-01-15T05:43:14.422Z,7.20
2023-01-15T05:46:06.516Z,7.20
2023-01-15T05:48:35.897Z,7.20
2023-01-15T05:51:13.296Z,7.20
2023-01-15T05:53:52.530Z,7.20
2023-01-15T05:56:20.966Z,7.20
2023-01-15T05:58:58.686Z,7.20
2023-01-15T06:01:34.594Z,7.20
2023-01-15T06:04:17.217Z,7.20
2023-01-15T06:06:54.620Z,7.10
2023-01-15T06:09:25.506Z,7.10
2023-01-15T06:12:04.396Z,7.10
2023-01-15T06:14:42.344Z,7.10
2023-01-15T06:17:10.476Z,7.10
2023-01-15T06:19:41.625Z,7.10
2023-01-15T06:22:11.647Z,7.10
2023-01-15T06:24:43.114Z,7.10
2023-01-15T06:27:12.202Z,7.10
2023-01-15T06:29:46.000Z,7.10
2023-01-15T06:32:14.141Z,7.10
2023-01-15T06:34:48.629Z,7.10
2023-01-15T06:37:26.656Z,7.10
2023-01-15T06:39:55.173Z,7.10
2023-01-15T06:42:49.825Z,7.00
2023-01-15T06:45:36.128Z,7.00
2023-01-15T06:50:53.590Z,6.90
2023-01-15T06:53:35.983Z,6.90
2023-01-15T06:56:06.068Z,6.90
2023-01-15T06:58:38.454Z,6.90
2023-01-15T07:01:24.333Z,6.80
2023-01-15T07:04:03.281Z,6.80
2023-01-15T07:06:38.842Z,6.80
2023-01-15T07:09:11.388Z,6.80
2023-01-15T07:11:49.556Z,6.80
2023-01-15T07:14:27.204Z,6.80
2023-01-15T07:17:02.938Z,6.70
2023-01-15T07:19:31.695Z,6.70
2023-01-15T07:22:14.080Z,6.70
2023-01-15T07:24:46.705Z,6.60
2023-01-15T07:27:17.410Z,6.60
2023-01-15T07:29:49.885Z,6.70
2023-01-15T07:32:20.897Z,6.60
2023-01-15T07:34:51.096Z,6.60
2023-01-15T07:37:19.969Z,6.60
2023-01-15T07:39:53.829Z,6.70
2023-01-15T07:42:42.089Z,6.60
2023-01-15T07:45:41.113Z,6.60
2023-01-15T07:48:38.066Z,6.60
2023-01-15T07:51:06.510Z,6.60
2023-01-15T07:53:39.611Z,6.60
2023-01-15T07:56:21.478Z,6.60
2023-01-15T07:58:51.500Z,6.60
2023-01-15T08:01:22.734Z,6.60
2023-01-15T08:04:00.282Z,6.60
2023-01-15T08:06:29.728Z,6.60
2023-01-15T08:09:04.594Z,6.60
2023-01-15T08:11:53.004Z,6.60
2023-01-15T08:17:17.467Z,6.60
2023-01-15T08:19:52.196Z,6.50
2023-01-15T08:22:20.836Z,6.50
2023-01-15T08:25:00.991Z,6.40
2023-01-15T08:27:38.546Z,6.40
2023-01-15T08:30:16.574Z,6.40
2023-01-15T08:32:45.353Z,6.40
2023-01-15T08:35:16.943Z,6.40
2023-01-15T08:38:04.627Z,6.40
2023-01-15T08:40:58.884Z,6.40
2023-01-15T08:43:39.826Z,6.40
2023-01-15T08:46:08.402Z,6.30
2023-01-15T08:48:42.677Z,6.40
2023-01-15T08:51:12.150Z,6.30
2023-01-15T08:53:43.555Z,6.40
2023-01-15T08:56:13.873Z,6.40
2023-01-15T08:58:47.248Z,6.30
2023-01-15T09:01:16.320Z,6.40
2023-01-15T09:03:49.891Z,6.40
2023-01-15T09:06:18.360Z,6.40
2023-01-15T09:08:58.566Z,6.40
2023-01-15T09:11:30.007Z,6.40
2023-01-15T09:14:56.684Z,6.40
2023-01-15T09:17:01.064Z,6.50
2023-01-15T09:19:38.551Z,6.60
2023-01-15T09:22:17.416Z,6.60
2023-01-15T09:24:54.750Z,6.70
2023-01-15T09:27:22.860Z,6.70
2023-01-15T09:29:59.938Z,6.70
2023-01-15T09:32:28.211Z,6.70
2023-01-15T09:35:04.141Z,6.70
2023-01-15T09:37:38.131Z,6.70
2023-01-15T09:40:09.267Z,6.70
2023-01-15T09:42:48.102Z,6.70
2023-01-15T09:45:32.320Z,6.70
2023-01-15T09:48:25.523Z,6.70
2023-01-15T09:51:14.070Z,6.70
2023-01-15T09:54:08.266Z,6.80
2023-01-15T09:56:38.787Z,6.80
2023-01-15T09:59:18.082Z,6.90
2023-01-15T10:01:51.859Z,6.90
2023-01-15T10:04:35.343Z,7.00
2023-01-15T10:07:19.565Z,7.00
2023-01-15T10:10:00.454Z,7.00
2023-01-15T10:12:38.239Z,7.00
2023-01-15T10:15:22.515Z,7.10
2023-01-15T10:18:01.076Z,7.10
2023-01-15T10:20:48.547Z,7.20
2023-01-15T10:23:46.653Z,7.20
2023-01-15T10:26:18.836Z,7.20
2023-01-15T10:29:13.196Z,7.20
2023-01-15T10:31:52.983Z,7.10
2023-01-15T10:35:23.164Z,7.10
2023-01-15T10:38:05.187Z,7.10
2023-01-15T10:40:53.064Z,7.00
2023-01-15T10:43:35.457Z,6.90
2023-01-15T10:46:15.363Z,6.70
2023-01-15T10:48:58.067Z,6.00
2023-01-15T10:51:54.109Z,5.20
2023-01-15T10:54:40.180Z,4.70
2023-01-15T10:57:40.381Z,4.40
2023-01-15T11:00:18.281Z,4.40
2023-01-15T11:02:54.599Z,4.40
2023-01-15T11:05:22.927Z,4.50
2023-01-15T11:10:46.857Z,4.50
2023-01-15T11:13:40.009Z,4.50
2023-01-15T11:16:35.052Z,4.60
2023-01-15T11:19:23.388Z,4.60
2023-01-15T11:25:14.238Z,4.70
2023-01-15T11:28:47.517Z,4.90
2023-01-15T11:31:26.036Z,4.90
2023-01-15T11:34:07.869Z,5.00
2023-01-15T11:36:36.203Z,5.00
2023-01-15T11:39:31.264Z,5.10
2023-01-15T11:42:21.340Z,5.10
2023-01-15T11:45:40.132Z,5.20
2023-01-15T11:48:36.056Z,5.30
2023-01-15T11:51:13.464Z,5.40
2023-01-15T11:54:02.217Z,5.50
2023-01-15T11:56:40.431Z,5.50
2023-01-15T11:59:20.110Z,5.60
2023-01-15T12:02:06.207Z,5.70
2023-01-15T12:04:57.365Z,5.70
2023-01-15T12:07:29.949Z,5.70
2023-01-15T12:10:42.228Z,5.80
2023-01-15T12:13:43.994Z,5.80
2023-01-15T12:16:22.571Z,5.90
2023-01-15T12:19:16.215Z,5.90
2023-01-15T12:22:30.040Z,6.00
2023-01-15T12:25:28.665Z,6.10
2023-01-15T12:28:13.622Z,6.20
2023-01-15T12:30:55.671Z,6.30
2023-01-15T12:33:42.541Z,6.30
2023-01-15T12:36:19.017Z,6.30
2023-01-15T12:39:00.092Z,6.20
2023-01-15T12:41:57.415Z,6.10
2023-01-15T12:44:59.214Z,6.20
2023-01-15T12:47:44.919Z,6.20
2023-01-15T12:50:28.588Z,6.10
2023-01-15T12:56:09.643Z,6.10
2023-01-15T12:58:52.426Z,6.10
2023-01-15T13:01:32.412Z,6.10
2023-01-15T13:04:12.000Z,6.20
2023-01-15T13:06:49.570Z,6.20
2023-01-15T13:09:53.060Z,6.30
2023-01-15T13:12:29.405Z,6.40
2023-01-15T13:15:07.242Z,6.40
2023-01-15T13:17:55.378Z,6.50
2023-01-15T13:20:41.108Z,6.50
2023-01-15T13:23:30.431Z,6.60
2023-01-15T13:26:41.057Z,6.60
2023-01-15T13:29:21.173Z,6.70
2023-01-15T13:32:05.894Z,6.70
2023-01-15T13:34:59.654Z,6.80
2023-01-15T13:38:07.797Z,6.90
2023-01-15T13:41:01.730Z,6.90
2023-01-15T13:44:01.981Z,7.00
2023-01-15T13:46:30.756Z,7.10
2023-01-15T13:49:24.926Z,7.10
2023-01-15T13:51:53.825Z,7.10
2023-01-15T13:54:31.074Z,7.10
2023-01-15T13:57:11.480Z,7.20
2023-01-15T13:59:50.714Z,7.20
2023-01-15T14:02:30.620Z,7.30
2023-01-15T14:05:10.902Z,7.30
2023-01-15T14:07:40.337Z,7.30
2023-01-15T14:10:33.187Z,7.30
2023-01-15T14:13:30.902Z,7.30
2023-01-15T14:16:18.413Z,7.30
2023-01-15T14:19:14.255Z,7.30
2023-01-15T14:21:59.884Z,7.30
2023-01-15T14:25:05.169Z,7.30
2023-01-15T14:28:17.062Z,7.30
2023-01-15T14:31:26.387Z,7.30
2023-01-15T14:34:28.259Z,7.30
2023-01-15T14:37:41.927Z,7.30
2023-01-15T14:40:31.917Z,7.40
2023-01-15T14:43:26.219Z,7.40
2023-01-15T14:45:56.483Z,7.40
2023-01-15T14:48:53.636Z,7.40
2023-01-15T14:51:37.392Z,7.40
2023-01-15T14:54:27.265Z,7.30
2023-01-15T14:56:57.884Z,7.30
2023-01-15T14:59:58.896Z,7.20
2023-01-15T15:02:52.632Z,7.00
2023-01-15T15:08:38.747Z,6.90
2023-01-15T15:11:43.714Z,6.80
2023-01-15T15:14:48.790Z,6.90
2023-01-15T15:18:02.180Z,6.90
2023-01-15T15:21:00.992Z,6.90
2023-01-15T15:24:08.908Z,6.90
2023-01-15T15:26:47.294Z,6.90
2023-01-15T15:29:22.483Z,6.80
2023-01-15T15:32:29.142Z,6.70
2023-01-15T15:35:04.905Z,6.70
2023-01-15T15:51:20.875Z,5.20
2023-01-15T15:54:17.763Z,5.20
2023-01-15T16:01:15.314Z,5.30
2023-01-15T16:03:55.712Z,5.40
2023-01-15T16:06:37.376Z,5.50
2023-01-15T16:09:18.528Z,5.50
2023-01-15T16:11:50.713Z,5.60
2023-01-15T16:14:27.073Z,5.60
2023-01-15T16:17:06.375Z,5.60
2023-01-15T16:19:45.092Z,5.70
2023-01-15T16:22:31.018Z,5.70
2023-01-15T16:25:04.097Z,5.70
2023-01-15T16:27:36.640Z,5.70
2023-01-15T16:30:17.872Z,5.70
2023-01-15T16:32:52.589Z,5.80
2023-01-15T16:35:32.401Z,5.70
2023-01-15T16:38:15.560Z,5.70
2023-01-15T16:40:59.563Z,5.70
2023-01-15T16:43:39.094Z,5.70
2023-01-15T16:46:22.418Z,5.80
2023-01-15T16:49:25.946Z,5.80
2023-01-15T16:52:00.911Z,5.70
2023-01-15T16:54:58.572Z,5.80
2023-01-15T16:57:37.403Z,5.80
2023-01-15T17:00:30.749Z,5.70
2023-01-15T17:03:23.148Z,5.70
2023-01-15T17:06:04.747Z,5.70
2023-01-15T17:08:44.945Z,5.70
2023-01-15T17:11:27.742Z,5.70
2023-01-15T17:14:10.104Z,5.80
2023-01-15T17:16:47.054Z,5.70
2023-01-15T17:19:18.603Z,5.70
2023-01-15T17:21:52.763Z,5.70
2023-01-15T17:24:31.183Z,5.70
2023-01-15T17:27:00.906Z,5.70
2023-01-15T17:29:30.675Z,5.70
2023-01-15T17:32:03.167Z,5.70
2023-01-15T17:34:42.267Z,5.70
2023-01-15T17:37:15.308Z,5.80
2023-01-15T17:39:46.543Z,5.70
2023-01-15T17:42:18.249Z,5.80
2023-01-15T17:44:46.841Z,5.80
2023-01-15T17:47:20.521Z,5.70
2023-01-15T17:49:48.843Z,5.70
2023-01-15T17:52:40.394Z,5.70
2023-01-15T17:55:28.384Z,5.80
2023-01-15T17:58:23.600Z,5.80
2023-01-15T18:01:11.643Z,5.80
2023-01-15T18:04:03.591Z,5.80
2023-01-15T18:06:31.920Z,5.70
2023-01-15T18:09:06.734Z,5.70
2023-01-15T18:11:35.422Z,5.70
2023-01-15T18:14:12.358Z,5.70
2023-01-15T18:16:41.146Z,5.70
2023-01-15T18:19:15.976Z,5.70
2023-01-15T18:21:56.359Z,5.80
2023-01-15T18:24:24.607Z,5.70
2023-01-15T18:26:59.161Z,5.70
2023-01-15T18:29:39.961Z,5.80
2023-01-15T18:32:16.898Z,5.80
2023-01-15T18:34:44.922Z,5.80
2023-01-15T18:41:02.670Z,5.80
2023-01-15T18:43:48.486Z,5.80
2023-01-15T18:46:46.448Z,5.80
2023-01-15T18:49:24.620Z,5.80
2023-01-15T18:52:27.341Z,5.80
2023-01-15T18:54:56.037Z,5.80
2023-01-15T18:57:33.109Z,5.80
2023-01-15T19:00:12.690Z,5.80
2023-01-15T19:02:49.494Z,5.90
2023-01-15T19:05:19.665Z,5.90
2023-01-15T19:07:55.753Z,5.90
2023-01-15T19:10:31.686Z,5.90
2023-01-15T19:13:02.854Z,5.90
2023-01-15T19:15:54.746Z,5.90
2023-01-15T19:18:55.338Z,6.00
2023-01-15T19:21:26.039Z,5.90
2023-01-15T19:23:59.022Z,5.90
2023-01-15T19:26:30.096Z,6.00
2023-01-15T19:29:07.712Z,6.00
2023-01-15T19:31:41.840Z,6.00
2023-01-15T19:34:33.013Z,6.00
2023-01-15T19:38:12.041Z,6.00
2023-01-15T19:40:52.653Z,6.00
2023-01-15T19:43:49.046Z,6.00
2023-01-15T19:50:59.297Z,6.00
2023-01-15T19:53:37.248Z,6.00
2023-01-15T19:56:11.023Z,6.00
2023-01-15T19:58:39.346Z,5.90
2023-01-15T20:01:17.716Z,5.90
2023-01-15T20:07:04.933Z,5.90
2023-01-15T20:09:38.504Z,5.90
2023-01-15T20:12:24.174Z,5.90
2023-01-15T20:15:00.546Z,5.90
2023-01-15T20:17:30.557Z,5.90
2023-01-15T20:23:24.562Z,5.90
2023-01-15T20:26:04.793Z,5.80
2023-01-15T20:28:33.621Z,5.90
2023-01-15T20:31:27.821Z,5.80
2023-01-15T20:34:06.685Z,5.80
2023-01-15T20:36:35.766Z,5.90
2023-01-15T20:39:16.424Z,5.80
2023-01-15T20:42:18.482Z,5.80
2023-01-15T20:44:59.059Z,5.80
2023-01-15T20:48:00.719Z,5.90
2023-01-15T20:51:01.165Z,5.80
2023-01-15T20:53:39.411Z,5.80
2023-01-15T20:56:26.667Z,5.80
2023-01-15T20:59:19.585Z,5.80
2023-01-15T21:01:48.042Z,5.80
2023-01-15T21:04:19.160Z,5.80
2023-01-15T21:06:47.391Z,5.80
2023-01-15T21:09:24.454Z,5.80
2023-01-15T21:11:52.683Z,5.70
2023-01-15T21:14:29.845Z,5.70
2023-01-15T21:17:14.617Z,5.70
2023-01-15T21:19:46.965Z,5.80
2023-01-15T21:22:15.240Z,5.70
2023-01-15T21:24:51.478Z,5.70
2023-01-15T21:27:27.178Z,5.70
2023-01-15T21:29:58.549Z,5.70
2023-01-15T21:32:35.476Z,5.70
2023-01-15T21:35:11.579Z,5.70
2023-01-15T21:37:39.735Z,5.70
2023-01-15T21:40:14.403Z,5.70
2023-01-15T21:42:59.779Z,5.70
2023-01-15T21:45:39.909Z,5.70
2023-01-15T21:48:17.896Z,5.70
2023-01-15T21:50:46.318Z,5.70
2023-01-15T21:53:22.264Z,5.70
2023-01-15T21:55:59.537Z,5.70
2023-01-15T21:58:28.270Z,5.70
2023-01-15T22:01:10.028Z,5.70
2023-01-15T22:03:45.865Z,5.70
2023-01-15T22:06:14.370Z,5.70
2023-01-15T22:08:45.665Z,5.80
2023-01-15T22:11:14.279Z,5.70
2023-01-15T22:13:51.054Z,5.80
2023-01-15T22:17:15.227Z,5.80
2023-01-15T22:20:05.897Z,5.80
2023-01-15T22:22:36.569Z,5.80
2023-01-15T22:25:21.887Z,5.80
2023-01-15T22:27:55.735Z,5.80
2023-01-15T22:30:24.211Z,5.80
2023-01-15T22:32:54.984Z,5.80
2023-01-15T22:35:34.567Z,5.90
2023-01-15T22:38:02.768Z,5.90
2023-01-15T22:40:38.889Z,5.80
2023-01-15T22:43:07.172Z,5.90
2023-01-15T22:45:49.553Z,5.90
2023-01-15T22:48:23.284Z,5.90
2023-01-15T22:51:03.334Z,5.90
2023-01-15T22:56:27.384Z,5.90
2023-01-15T22:59:33.486Z,5.90
2023-01-15T23:02:12.605Z,6.00
2023-01-15T23:04:50.164Z,5.90
2023-01-15T23:07:32.005Z,5.90
2023-01-15T23:10:00.340Z,5.90
2023-01-15T23:12:32.442Z,5.90
2023-01-15T23:15:00.989Z,5.90
2023-01-15T23:17:32.515Z,5.90
2023-01-15T23:20:01.716Z,5.90
2023-01-15T23:22:36.620Z,5.90
2023-01-15T23:25:05.639Z,5.90
2023-01-15T23:28:00.463Z,5.90
2023-01-15T23:30:37.900Z,5.90
2023-01-15T23:33:08.544Z,5.90
2023-01-15T23:35:42.663Z,5.90
2023-01-15T23:38:15.776Z,5.80
2023-01-15T23:40:44.119Z,5.80
2023-01-15T23:43:59.468Z,5.80
2023-01-15T23:46:42.302Z,5.80
2023-01-15T23:49:18.885Z,5.70
2023-01-15T23:52:01.968Z,5.70
2023-01-15T23:54:43.698Z,5.80
